Time;durP1;ratioP1;P1;durP2;ratioP2;P2;SDS_P1;SDS_P2;PMS_P1;PMS_P2;Temp;Humidity;BMP_temperature;BMP_pressure;BME280_temperature;BME280_humidity;BME280_pressure;Samples;Min_cycle;Max_cycle;Signal;HPM_P1;HPM_P2
2023/10/05 07:58:59;;;;;;;9.45;3.08;;;;;;;10.72;81.89;97571.59;2083899;28;20562;-67
2023/10/05 08:00:59;;;;;;;9.93;3.08;;;;;;;10.78;81.83;97571.44;2101341;27;20583;-67
2023/10/05 08:02:01;;;;;;;15.23;2.58;;;;;;;10.91;82.18;97571.91;2098543;28;20244;-67
2023/10/05 08:03:03;;;;;;;7.63;2.22;;;;;;;11.01;81.16;97576.81;2094461;28;20219;-67
2023/10/05 08:04:05;;;;;;;16.40;3.35;;;;;;;11.11;80.83;97586.13;2091209;27;20624;-67
2023/10/05 08:05:12;;;;;;;7.57;2.75;;;;;;;11.17;80.74;97585.03;2080883;28;20802;-68
2023/10/05 08:06:15;;;;;;;11.45;3.28;;;;;;;11.48;79.61;97584.91;2076887;28;20533;-67
2023/10/05 08:07:17;;;;;;;12.48;2.92;;;;;;;11.71;78.69;97588.50;2076442;28;20214;-67
2023/10/05 08:08:20;;;;;;;12.60;3.22;;;;;;;11.88;78.83;97596.63;2075635;28;20245;-67
2023/10/05 08:09:21;;;;;;;7.00;2.50;;;;;;;11.96;77.74;97596.41;2081970;28;20232;-67
2023/10/05 08:10:23;;;;;;;7.45;2.90;;;;;;;12.22;77.15;97592.81;2089468;28;20201;-67
2023/10/05 08:19:28;;;;;;;9.63;3.40;;;;;;;11.98;78.33;97602.41;2093795;27;20565;-68
2023/10/05 08:20:29;;;;;;;7.88;2.78;;;;;;;11.78;78.71;97595.22;2089247;28;20206;-68
2023/10/05 08:21:32;;;;;;;8.77;2.60;;;;;;;12.09;78.55;97602.06;2085871;28;20185;-68
2023/10/05 08:22:35;;;;;;;7.60;3.20;;;;;;;12.34;77.95;97596.78;2082428;28;20197;-68
2023/10/05 08:23:36;;;;;;;25.73;3.72;;;;;;;12.66;77.26;97613.06;2081728;28;20212;-68
2023/10/05 08:24:38;;;;;;;11.82;3.50;;;;;;;12.62;76.99;97611.47;2083194;28;20223;-68
2023/10/05 08:25:40;;;;;;;11.02;3.45;;;;;;;12.76;77.08;97603.09;2090456;28;20222;-68
2023/10/05 08:26:42;;;;;;;16.92;3.78;;;;;;;12.85;76.91;97609.72;2088952;28;20199;-68
2023/10/05 08:27:43;;;;;;;7.60;2.58;;;;;;;12.88;76.89;97612.25;2091400;28;20202;-68
2023/10/05 08:28:49;;;;;;;9.70;3.10;;;;;;;13.12;75.50;97613.06;2089585;28;20283;-68
2023/10/05 08:29:51;;;;;;;13.02;3.42;;;;;;;13.41;75.18;97610.19;2096481;28;20666;-68
2023/10/05 08:31:05;;;;;;;10.70;2.97;;;;;;;13.66;74.31;97610.03;2098677;28;20202;-68
2023/10/05 08:32:07;;;;;;;7.30;3.00;;;;;;;13.65;74.11;97614.44;2099382;28;20206;-68
2023/10/05 08:33:10;;;;;;;13.65;2.95;;;;;;;13.90;73.52;97615.19;2098845;28;20195;-68
2023/10/05 08:34:17;;;;;;;12.77;3.10;;;;;;;14.14;72.92;97610.63;2095633;28;20695;-68
2023/10/05 08:35:19;;;;;;;11.15;3.55;;;;;;;14.39;72.00;97615.66;2096096;28;20191;-68
2023/10/05 08:36:21;;;;;;;9.85;3.47;;;;;;;14.69;71.51;97604.72;2097424;28;20196;-68
2023/10/05 08:37:23;;;;;;;12.55;3.67;;;;;;;14.97;70.11;97608.69;2098328;28;20192;-68
2023/10/05 08:38:25;;;;;;;8.90;3.15;;;;;;;14.94;70.18;97609.66;2095604;28;20238;-68
2023/10/05 08:39:26;;;;;;;9.02;2.72;;;;;;;15.90;68.25;97610.34;2096541;28;20745;-68
2023/10/05 08:40:41;;;;;;;13.10;3.58;;;;;;;16.00;67.31;97613.34;2096098;28;20674;-68
2023/10/05 08:41:42;;;;;;;7.82;3.05;;;;;;;16.16;66.76;97611.63;2094422;28;20230;-68
2023/10/05 08:42:48;;;;;;;8.30;2.80;;;;;;;16.22;65.79;97612.25;2095180;28;20202;-68
2023/10/05 08:43:50;;;;;;;8.23;3.38;;;;;;;16.41;66.26;97606.84;2096265;28;20195;-68
2023/10/05 08:44:53;;;;;;;13.88;3.55;;;;;;;16.33;65.94;97608.09;2096438;28;20208;-68
2023/10/05 08:46:01;;;;;;;14.60;2.95;;;;;;;16.01;66.64;97612.44;2099003;28;20671;-68
2023/10/05 08:47:05;;;;;;;7.30;3.05;;;;;;;16.03;66.88;97610.53;2095157;28;20227;-68
2023/10/05 08:48:08;;;;;;;6.43;3.00;;;;;;;16.05;66.57;97603.44;2094527;28;20217;-68
2023/10/05 08:49:11;;;;;;;9.35;3.10;;;;;;;15.99;67.06;97601.94;2095477;28;20231;-68
2023/10/05 08:50:14;;;;;;;7.80;3.05;;;;;;;16.01;66.82;97599.25;2095247;28;20227;-66
2023/10/05 08:51:15;;;;;;;7.40;3.00;;;;;;;16.15;66.81;97602.00;2094711;28;20228;-66
2023/10/05 08:52:20;;;;;;;11.55;3.03;;;;;;;16.24;66.53;97610.34;2095796;28;20206;-66
2023/10/05 08:53:22;;;;;;;13.10;3.50;;;;;;;16.03;66.90;97597.38;2098380;28;20191;-65
2023/10/05 08:54:28;;;;;;;7.40;2.97;;;;;;;16.49;66.18;97602.88;2096462;28;20301;-66
2023/10/05 08:55:34;;;;;;;5.78;2.60;;;;;;;16.86;65.18;97599.16;2096022;28;20234;-66
2023/10/05 08:56:47;;;;;;;12.10;3.30;;;;;;;16.19;66.33;97604.47;2095487;28;20200;-66
2023/10/05 08:57:52;;;;;;;17.80;4.07;;;;;;;16.78;65.73;97599.59;2097543;28;20666;-66
2023/10/05 08:58:54;;;;;;;17.63;3.95;;;;;;;17.11;64.49;97598.69;2096145;28;20254;-65
2023/10/05 08:59:55;;;;;;;10.68;4.00;;;;;;;17.15;64.38;97602.84;2097471;28;20192;-66
2023/10/05 09:01:03;;;;;;;9.60;3.70;;;;;;;17.33;64.14;97600.97;2093997;28;20662;-66
2023/10/05 09:02:08;;;;;;;14.63;4.18;;;;;;;17.32;63.82;97599.28;2098124;28;20287;-66
2023/10/05 09:04:43;;;;;;;13.73;4.30;;;;;;;17.27;62.72;97602.16;2099026;28;20280;-66
2023/10/05 09:06:13;;;;;;;12.80;4.15;;;;;;;16.75;64.08;97602.41;2093332;28;20209;-66
2023/10/05 09:07:38;;;;;;;17.15;4.53;;;;;;;16.69;64.77;97606.22;2094675;28;20253;-65
2023/10/05 09:08:42;;;;;;;12.70;4.32;;;;;;;16.73;64.59;97599.00;2090162;28;20188;-66
2023/10/05 09:09:54;;;;;;;15.82;4.30;;;;;;;16.89;64.66;97593.75;2089927;28;20220;-66
2023/10/05 09:10:58;;;;;;;16.67;4.18;;;;;;;17.21;64.59;97599.03;2094880;28;20245;-65
2023/10/05 09:12:17;;;;;;;9.90;4.28;;;;;;;17.12;64.39;97598.59;2095610;28;20199;-66
2023/10/05 09:13:23;;;;;;;14.35;4.63;;;;;;;17.27;63.75;97601.31;2096568;28;20199;-65
2023/10/05 09:14:27;;;;;;;19.27;4.97;;;;;;;17.01;64.41;97608.06;2096368;28;20216;-66
2023/10/05 09:15:34;;;;;;;22.35;4.93;;;;;;;16.60;65.37;97604.91;2096451;28;20189;-66
2023/10/05 09:16:41;;;;;;;18.60;4.25;;;;;;;16.38;65.92;97607.00;2095451;28;20226;-66
2023/10/05 09:17:55;;;;;;;15.70;4.50;;;;;;;16.44;66.33;97599.63;2091865;28;20195;-66
2023/10/05 09:18:57;;;;;;;12.65;4.70;;;;;;;16.15;65.08;97603.78;2093135;28;20246;-66
2023/10/05 09:20:21;;;;;;;14.35;6.15;;;;;;;15.97;65.83;97600.31;2095335;28;20196;-66
2023/10/05 09:21:50;;;;;;;18.15;6.05;;;;;;;15.92;65.59;97602.34;2096237;28;20556;-65
2023/10/05 09:22:56;;;;;;;13.73;4.75;;;;;;;15.71;66.04;97609.53;2098949;28;20196;-66
2023/10/05 09:23:57;;;;;;;19.00;5.40;;;;;;;15.52;66.76;97615.69;2099047;28;20192;-65
2023/10/05 09:24:59;;;;;;;19.60;4.97;;;;;;;15.50;67.22;97614.91;2095227;28;20199;-66
2023/10/05 09:26:01;;;;;;;16.45;4.30;;;;;;;15.84;66.90;97608.00;2094634;28;20252;-65
2023/10/05 09:27:17;;;;;;;21.98;5.60;;;;;;;15.94;65.60;97603.13;2097872;28;20282;-65
2023/10/05 09:28:45;;;;;;;11.40;4.13;;;;;;;15.91;64.81;97603.25;2098213;28;20207;-66
2023/10/05 09:29:48;;;;;;;18.70;5.63;;;;;;;16.04;64.59;97606.16;2095874;28;20273;-65
2023/10/05 09:30:56;;;;;;;16.30;4.78;;;;;;;16.03;64.74;97605.28;2087895;28;20207;-66
2023/10/05 09:31:59;;;;;;;11.88;4.38;;;;;;;15.94;65.01;97603.97;2091681;28;20203;-65
2023/10/05 09:33:10;;;;;;;17.35;5.78;;;;;;;16.17;64.60;97601.94;2091869;28;20196;-66
2023/10/05 09:34:14;;;;;;;14.30;5.13;;;;;;;16.41;64.88;97610.31;2087286;28;20223;-65
2023/10/05 09:35:27;;;;;;;17.58;5.85;;;;;;;16.58;64.27;97605.94;2086158;28;20622;-65
2023/10/05 09:36:30;;;;;;;10.40;4.18;;;;;;;16.92;64.24;97618.16;2089862;28;20193;-65
2023/10/05 09:37:34;;;;;;;17.00;5.07;;;;;;;17.83;62.26;97616.63;2090241;28;20228;-66
2023/10/05 09:38:43;;;;;;;16.75;4.57;;;;;;;17.98;60.72;97613.09;2090545;28;20196;-66
2023/10/05 09:39:55;;;;;;;16.73;4.95;;;;;;;18.36;59.99;97612.59;2090699;28;20337;-66
2023/10/05 09:41:02;;;;;;;14.77;5.30;;;;;;;18.36;58.97;97617.00;2090003;28;20287;-68
2023/10/05 09:42:04;;;;;;;13.55;4.90;;;;;;;18.30;59.77;97610.31;2090240;28;20622;-68
2023/10/05 09:43:10;;;;;;;16.23;5.22;;;;;;;18.63;59.41;97617.13;2093182;28;20196;-68
2023/10/05 09:44:15;;;;;;;27.25;5.25;;;;;;;18.39;58.73;97616.84;2091141;28;20233;-68
2023/10/05 09:45:19;;;;;;;13.73;5.30;;;;;;;18.01;58.95;97620.84;2090603;28;20212;-68
2023/10/05 09:46:22;;;;;;;18.88;4.63;;;;;;;18.09;59.46;97626.53;2092157;28;20208;-68
2023/10/05 09:47:32;;;;;;;16.30;5.20;;;;;;;17.91;60.26;97628.41;2090371;28;20774;-68
2023/10/05 09:48:36;;;;;;;43.17;5.10;;;;;;;18.64;59.26;97620.59;2090207;28;20539;-68
2023/10/05 09:49:39;;;;;;;15.45;4.63;;;;;;;18.96;57.62;97621.28;2089702;28;20225;-68
2023/10/05 09:50:41;;;;;;;15.38;5.10;;;;;;;18.35;57.97;97621.47;2093003;28;20189;-66
2023/10/05 09:51:48;;;;;;;13.80;4.30;;;;;;;18.05;58.62;97617.06;2091821;28;20658;-66
2023/10/05 09:52:49;;;;;;;18.42;5.53;;;;;;;18.36;58.45;97617.88;2090314;28;20288;-65
2023/10/05 09:53:54;;;;;;;16.50;4.47;;;;;;;18.87;57.97;97616.53;2091437;28;20640;-65
2023/10/05 09:54:56;;;;;;;15.57;4.97;;;;;;;19.08;57.53;97619.63;2091607;28;20207;-66
2023/10/05 09:55:59;;;;;;;14.10;4.75;;;;;;;18.91;57.41;97618.06;2091838;28;20248;-66
2023/10/05 09:57:10;;;;;;;16.80;4.72;;;;;;;18.73;57.15;97620.91;2091602;28;20231;-65
2023/10/05 09:58:13;;;;;;;12.70;4.50;;;;;;;18.81;57.48;97619.56;2088942;28;20686;-66
2023/10/05 09:59:16;;;;;;;14.48;3.72;;;;;;;18.43;57.83;97623.63;2087783;28;20217;-65
2023/10/05 10:01:31;;;;;;;14.40;4.90;;;;;;;18.59;57.93;97618.25;2086794;28;20321;-65
2023/10/05 10:02:34;;;;;;;20.98;5.25;;;;;;;19.19;57.49;97622.44;2088919;28;20207;-65
2023/10/05 10:03:36;;;;;;;14.40;4.53;;;;;;;19.48;55.75;97617.06;2090601;28;20220;-66
2023/10/05 10:04:39;;;;;;;14.63;4.70;;;;;;;19.67;55.34;97613.22;2092604;28;20311;-65
2023/10/05 10:05:48;;;;;;;13.70;3.90;;;;;;;19.50;55.32;97617.81;2089419;28;20924;-66
2023/10/05 10:06:53;;;;;;;15.45;4.05;;;;;;;19.73;54.67;97615.44;2091985;28;20692;-66
2023/10/05 10:07:57;;;;;;;10.82;3.92;;;;;;;19.41;55.24;97618.41;2091177;28;20671;-66
2023/10/05 10:09:09;;;;;;;14.35;4.15;;;;;;;19.96;54.22;97619.25;2091470;28;20196;-66
2023/10/05 10:10:12;;;;;;;11.90;3.75;;;;;;;19.50;55.10;97614.31;2089211;28;20228;-66
2023/10/05 10:11:19;;;;;;;12.60;4.65;;;;;;;19.38;55.83;97618.63;2094777;28;20203;-65
2023/10/05 10:12:25;;;;;;;12.30;4.40;;;;;;;19.69;54.73;97617.47;2092893;28;20197;-66
2023/10/05 10:13:37;;;;;;;14.73;5.45;;;;;;;19.50;55.11;97609.00;2089598;28;20200;-66
2023/10/05 10:14:43;;;;;;;17.58;4.47;;;;;;;19.31;55.48;97609.38;2088207;28;20221;-65
2023/10/05 10:15:47;;;;;;;14.73;4.28;;;;;;;19.25;55.78;97605.34;2086121;28;20211;-66
2023/10/05 10:17:00;;;;;;;14.55;4.30;;;;;;;19.09;55.62;97616.88;2089230;28;20622;-66
2023/10/05 10:18:14;;;;;;;11.35;4.25;;;;;;;19.56;54.91;97614.75;2091028;28;20236;-65
2023/10/05 10:19:19;;;;;;;19.45;3.95;;;;;;;20.14;54.02;97608.34;2087641;28;20281;-65
2023/10/05 10:20:36;;;;;;;8.18;3.15;;;;;;;20.14;54.08;97609.19;2089403;28;20211;-66
2023/10/05 10:21:42;;;;;;;10.38;4.30;;;;;;;20.41;53.19;97612.69;2090897;28;20196;-66
2023/10/05 10:22:55;;;;;;;18.73;4.50;;;;;;;19.79;53.42;97612.38;2091778;28;20203;-65
2023/10/05 10:24:06;;;;;;;18.17;4.30;;;;;;;18.51;56.40;97608.16;2087745;28;20280;-65
2023/10/05 10:25:27;;;;;;;12.82;4.68;;;;;;;18.86;56.89;97617.50;2090860;28;20200;-65
2023/10/05 10:26:30;;;;;;;16.85;4.88;;;;;;;20.33;54.44;97623.84;2091498;28;20531;-66
2023/10/05 10:27:35;;;;;;;13.77;4.50;;;;;;;20.48;52.73;97617.47;2088081;28;20404;-66
2023/10/05 10:28:49;;;;;;;13.27;4.15;;;;;;;20.33;53.11;97623.84;2084242;28;20212;-65
2023/10/05 10:30:12;;;;;;;16.00;4.03;;;;;;;20.70;53.27;97629.22;2086114;28;20759;-66
2023/10/05 10:31:19;;;;;;;16.75;3.85;;;;;;;21.30;53.16;97627.63;2091544;28;20211;-66
2023/10/05 10:32:22;;;;;;;14.93;4.07;;;;;;;21.80;51.21;97626.66;2091641;28;20245;-66
2023/10/05 10:33:28;;;;;;;17.52;4.43;;;;;;;20.92;52.54;97625.09;2091570;28;20222;-66
2023/10/05 10:34:52;;;;;;;16.15;4.22;;;;;;;20.33;52.77;97623.84;2088385;28;20216;-66
2023/10/05 10:35:56;;;;;;;10.35;3.95;;;;;;;19.80;53.75;97634.44;2090674;28;20200;-66
2023/10/05 10:36:57;;;;;;;10.80;3.67;;;;;;;19.68;55.35;97630.78;2092551;28;20452;-66
2023/10/05 10:38:05;;;;;;;16.15;4.65;;;;;;;20.11;53.97;97624.44;2093306;28;20245;-67
2023/10/05 10:39:22;;;;;;;14.20;4.07;;;;;;;20.32;54.21;97630.94;2093072;28;20199;-66
2023/10/05 10:41:30;;;;;;;12.52;4.25;;;;;;;21.49;51.19;97627.09;2090188;28;20193;-66
2023/10/05 10:42:53;;;;;;;12.68;3.88;;;;;;;22.91;49.32;97626.16;2090887;28;20236;-67
2023/10/05 10:43:55;;;;;;;12.25;4.13;;;;;;;23.07;49.13;97617.78;2089708;28;20245;-66
2023/10/05 10:44:57;;;;;;;7.57;3.50;;;;;;;23.44;48.00;97622.81;2090468;28;20196;-67
2023/10/05 10:46:07;;;;;;;12.85;3.70;;;;;;;22.60;48.39;97625.94;2086289;28;20247;-67
2023/10/05 10:47:09;;;;;;;11.90;4.38;;;;;;;21.39;50.12;97619.94;2088405;28;20296;-67
2023/10/05 10:49:19;;;;;;;11.18;3.92;;;;;;;20.50;53.16;97628.81;2089808;28;20223;-67
2023/10/05 10:50:29;;;;;;;15.25;3.90;;;;;;;20.10;53.99;97618.31;2089258;28;20196;-67
2023/10/05 10:51:37;;;;;;;12.23;3.65;;;;;;;19.85;53.96;97619.13;2086981;28;20279;-67
2023/10/05 10:52:39;;;;;;;12.77;4.70;;;;;;;19.72;54.92;97622.53;2088558;28;20251;-67
2023/10/05 10:53:43;;;;;;;16.30;4.78;;;;;;;19.23;54.55;97617.81;2088255;28;20196;-67
2023/10/05 10:54:48;;;;;;;9.23;4.00;;;;;;;18.91;55.64;97610.13;2089182;28;20234;-67
2023/10/05 10:55:58;;;;;;;15.35;4.20;;;;;;;18.58;57.13;97612.09;2090204;28;20246;-67
2023/10/05 10:56:59;;;;;;;10.98;4.10;;;;;;;18.35;57.44;97612.69;2090091;28;20203;-67
2023/10/05 10:58:04;;;;;;;8.80;3.90;;;;;;;17.77;58.54;97610.75;2093746;28;20192;-67
2023/10/05 10:59:20;;;;;;;11.30;4.22;;;;;;;17.67;59.37;97611.38;2090242;28;20219;-66
2023/10/05 11:02:11;;;;;;;15.65;4.82;;;;;;;16.94;61.64;97616.31;2089639;28;20788;-67
2023/10/05 11:03:12;;;;;;;17.10;6.10;;;;;;;16.55;62.43;97606.97;2089009;28;20211;-67
2023/10/05 11:04:25;;;;;;;13.50;5.18;;;;;;;16.78;62.54;97608.34;2085669;28;20244;-67
2023/10/05 11:05:41;;;;;;;17.63;5.20;;;;;;;17.39;61.31;97611.16;2087381;28;20226;-68
2023/10/05 11:06:43;;;;;;;17.08;6.03;;;;;;;17.68;60.63;97607.81;2092173;28;20207;-68
2023/10/05 11:07:45;;;;;;;14.88;4.53;;;;;;;17.88;60.14;97607.47;2091728;28;20299;-68
2023/10/05 11:08:50;;;;;;;14.10;4.15;;;;;;;17.75;60.17;97607.34;2087349;28;20200;-68
2023/10/05 11:09:54;;;;;;;14.15;4.10;;;;;;;17.66;60.01;97602.63;2091736;28;20354;-68
2023/10/05 11:11:06;;;;;;;23.10;5.30;;;;;;;17.74;60.23;97610.94;2089767;28;20191;-68
2023/10/05 11:12:11;;;;;;;11.93;4.63;;;;;;;17.86;59.87;97611.16;2087974;28;20201;-68
2023/10/05 11:13:18;;;;;;;18.42;4.50;;;;;;;17.64;60.48;97615.06;2090537;28;20203;-68
2023/10/05 11:14:31;;;;;;;17.65;4.75;;;;;;;17.67;60.82;97622.78;2090803;28;20236;-68
2023/10/05 11:15:32;;;;;;;17.58;4.43;;;;;;;17.47;60.84;97629.22;2087569;28;20201;-68
2023/10/05 11:16:43;;;;;;;13.32;4.20;;;;;;;17.60;60.86;97624.09;2088845;28;20627;-68
2023/10/05 11:17:46;;;;;;;26.10;5.43;;;;;;;17.38;60.71;97614.78;2091768;28;20199;-68
2023/10/05 11:18:57;;;;;;;17.67;4.68;;;;;;;17.35;61.27;97614.94;2093276;28;20788;-68
2023/10/05 11:20:15;;;;;;;11.02;3.88;;;;;;;17.73;60.29;97616.31;2089599;28;20246;-68
2023/10/05 11:21:18;;;;;;;18.83;4.32;;;;;;;17.49;59.82;97605.38;2088187;28;20242;-68
2023/10/05 11:22:24;;;;;;;12.18;3.55;;;;;;;17.37;60.72;97599.00;2089520;28;20196;-68
2023/10/05 11:23:26;;;;;;;12.55;4.25;;;;;;;17.41;60.73;97597.91;2091296;28;20648;-68
2023/10/05 11:24:27;;;;;;;14.15;4.57;;;;;;;17.30;60.55;97595.84;2091380;28;20246;-68
2023/10/05 11:25:34;;;;;;;11.15;3.85;;;;;;;17.08;61.10;97605.00;2089053;28;20208;-68
2023/10/05 11:27:57;;;;;;;14.23;3.95;;;;;;;17.04;62.06;97607.88;2093355;28;20259;-68
2023/10/05 11:29:07;;;;;;;13.10;4.32;;;;;;;17.06;62.22;97603.38;2088018;28;20211;-67
2023/10/05 11:30:21;;;;;;;13.45;4.70;;;;;;;17.41;61.99;97605.81;2091537;28;20322;-68
2023/10/05 11:31:42;;;;;;;10.82;4.05;;;;;;;16.94;62.31;97603.13;2085222;28;20235;-68
2023/10/05 11:33:05;;;;;;;11.95;3.55;;;;;;;17.05;62.96;97610.44;2088402;28;20204;-68
2023/10/05 11:34:28;;;;;;;9.00;4.00;;;;;;;16.92;63.26;97598.88;2091316;28;20612;-68
2023/10/05 11:35:53;;;;;;;13.38;3.45;;;;;;;16.74;63.16;97590.16;2089160;28;20640;-68
2023/10/05 11:36:59;;;;;;;10.07;3.75;;;;;;;17.00;62.84;97599.31;2090502;28;20203;-68
2023/10/05 11:38:03;;;;;;;12.43;4.32;;;;;;;17.12;62.94;97595.97;2091914;28;20192;-68
2023/10/05 11:39:08;;;;;;;13.38;4.28;;;;;;;17.36;61.84;97598.16;2090476;28;20286;-67
2023/10/05 11:40:23;;;;;;;19.83;5.00;;;;;;;17.01;61.75;97603.63;2091053;28;20205;-68
2023/10/05 11:41:28;;;;;;;16.60;4.20;;;;;;;17.05;62.54;97605.19;2093247;28;20222;-68
2023/10/05 11:42:35;;;;;;;12.82;4.22;;;;;;;17.12;62.39;97608.31;2093229;28;20307;-68
2023/10/05 11:43:38;;;;;;;11.13;4.03;;;;;;;17.31;62.27;97610.75;2089324;28;20193;-68
2023/10/05 11:44:44;;;;;;;13.70;4.00;;;;;;;17.43;61.89;97607.44;2092350;28;20223;-69
2023/10/05 11:45:59;;;;;;;17.45;4.82;;;;;;;17.18;62.14;97604.47;2091947;28;20207;-68
2023/10/05 11:47:01;;;;;;;15.45;3.85;;;;;;;17.42;61.72;97607.50;2083332;28;20208;-68
2023/10/05 11:48:11;;;;;;;25.65;4.25;;;;;;;17.55;61.82;97610.31;2089539;28;20199;-68
2023/10/05 11:49:14;;;;;;;18.08;4.88;;;;;;;17.37;61.48;97601.63;2085751;28;20228;-68
2023/10/05 11:50:24;;;;;;;11.60;3.60;;;;;;;17.32;61.94;97601.91;2085473;28;20204;-68
2023/10/05 11:51:41;;;;;;;11.68;4.00;;;;;;;17.50;61.24;97599.16;2083380;28;20197;-68
2023/10/05 11:52:42;;;;;;;8.63;3.38;;;;;;;17.43;61.29;97583.69;2089653;28;20203;-68
2023/10/05 11:53:44;;;;;;;10.02;3.33;;;;;;;17.55;60.59;97590.03;2082308;28;20284;-67
2023/10/05 11:54:45;;;;;;;15.85;3.95;;;;;;;17.53;60.61;97583.13;2091874;28;20626;-69
2023/10/05 11:55:49;;;;;;;10.00;3.70;;;;;;;17.36;60.58;97574.41;2087201;28;20196;-68
2023/10/05 11:56:53;;;;;;;15.75;3.83;;;;;;;16.86;61.62;97580.69;2093988;28;20248;-68
2023/10/05 11:57:56;;;;;;;16.35;4.75;;;;;;;17.01;61.85;97576.41;2090954;28;20661;-68
2023/10/05 11:59:00;;;;;;;13.07;4.30;;;;;;;16.94;62.22;97578.53;2090408;28;20203;-68
2023/10/05 12:00:04;;;;;;;11.30;3.83;;;;;;;17.19;62.15;97577.13;2087716;28;20247;-67
2023/10/05 12:01:05;;;;;;;13.57;3.80;;;;;;;17.61;61.30;97576.47;2091470;28;20841;-69
2023/10/05 12:02:08;;;;;;;19.13;4.57;;;;;;;17.66;60.01;97584.13;2086119;28;20330;-68
2023/10/05 12:03:12;;;;;;;13.75;4.43;;;;;;;17.68;60.63;97587.50;2088968;28;20195;-69
2023/10/05 12:04:14;;;;;;;13.18;4.53;;;;;;;17.48;60.61;97579.91;2089049;28;20245;-69
2023/10/05 12:05:17;;;;;;;13.27;3.92;;;;;;;17.99;60.24;97582.25;2094323;28;20195;-69
2023/10/05 12:06:23;;;;;;;11.00;3.90;;;;;;;17.63;60.46;97585.13;2093598;28;20730;-68
2023/10/05 12:07:26;;;;;;;13.43;3.22;;;;;;;17.64;60.69;97596.56;2089434;28;20189;-68
2023/10/05 12:08:30;;;;;;;20.92;4.43;;;;;;;17.71;60.85;97592.63;2095695;28;20195;-69
2023/10/05 12:09:42;;;;;;;14.48;3.97;;;;;;;17.76;60.22;97595.84;2089457;28;20773;-69
2023/10/05 12:10:45;;;;;;;10.98;3.60;;;;;;;17.77;59.46;97599.34;2090092;28;20802;-69
2023/10/05 12:11:47;;;;;;;14.43;3.60;;;;;;;17.70;59.07;97597.97;2088287;28;20193;-68
2023/10/05 12:12:50;;;;;;;18.08;3.95;;;;;;;17.67;59.23;97598.19;2092093;28;20195;-68
2023/10/05 12:13:58;;;;;;;9.98;3.63;;;;;;;17.56;59.32;97604.94;2087846;28;20259;-67
2023/10/05 12:15:12;;;;;;;11.13;3.33;;;;;;;17.58;59.77;97602.19;2095957;28;20297;-68
2023/10/05 12:16:14;;;;;;;10.60;3.95;;;;;;;17.58;58.78;97605.69;2090667;28;20332;-66
2023/10/05 12:17:17;;;;;;;15.77;6.35;;;;;;;17.62;58.55;97604.59;2086797;28;20205;-68
2023/10/05 12:18:18;;;;;;;20.42;7.25;;;;;;;17.53;58.85;97605.09;2086202;28;20228;-67
2023/10/05 12:19:30;;;;;;;17.15;7.90;;;;;;;17.68;59.40;97603.34;2090120;28;20235;-67
2023/10/05 12:20:31;;;;;;;23.30;6.13;;;;;;;17.75;58.89;97606.47;2088109;28;20180;-67
2023/10/05 12:21:34;;;;;;;13.38;4.15;;;;;;;17.16;59.90;97596.63;2091635;28;20285;-68
2023/10/05 12:22:37;;;;;;;18.20;4.82;;;;;;;17.04;60.67;97606.09;2086499;28;20703;-68
2023/10/05 12:23:39;;;;;;;12.60;4.13;;;;;;;16.99;60.83;97602.88;2088601;28;20204;-68
2023/10/05 12:24:40;;;;;;;35.13;4.30;;;;;;;17.02;61.13;97613.25;2089479;28;20225;-68
2023/10/05 12:25:43;;;;;;;16.80;4.93;;;;;;;16.88;61.53;97611.34;2091460;28;20299;-68
2023/10/05 12:26:44;;;;;;;16.27;4.35;;;;;;;16.91;61.48;97616.50;2087672;28;20281;-68
2023/10/05 12:27:47;;;;;;;14.20;4.25;;;;;;;16.93;61.88;97608.47;2089966;28;20196;-68
2023/10/05 12:28:49;;;;;;;16.38;3.78;;;;;;;16.63;62.71;97617.09;2090556;28;20639;-68
2023/10/05 12:29:50;;;;;;;11.27;4.20;;;;;;;16.72;62.67;97610.47;2089186;28;20232;-68
2023/10/05 12:30:52;;;;;;;15.10;3.60;;;;;;;16.85;62.62;97614.16;2090110;28;20207;-68
2023/10/05 12:31:56;;;;;;;13.75;4.22;;;;;;;16.68;62.78;97614.22;2089355;28;20569;-68
2023/10/05 12:32:58;;;;;;;17.63;3.80;;;;;;;16.72;62.92;97606.06;2089615;28;20196;-67
2023/10/05 12:34:05;;;;;;;10.70;4.00;;;;;;;16.60;63.16;97606.72;2087841;28;20197;-68
2023/10/05 12:35:30;;;;;;;15.45;4.75;;;;;;;16.62;63.04;97589.00;2085520;28;20641;-68
2023/10/05 12:36:31;;;;;;;10.93;4.20;;;;;;;16.91;62.68;97597.16;2089402;28;20192;-68
2023/10/05 12:37:33;;;;;;;16.70;4.22;;;;;;;16.71;62.24;97582.38;2087961;28;20207;-68
2023/10/05 12:38:36;;;;;;;10.95;3.78;;;;;;;16.69;62.02;97595.66;2088174;28;20193;-68
2023/10/05 12:39:37;;;;;;;13.13;3.88;;;;;;;16.73;62.31;97596.34;2092303;28;20223;-68
2023/10/05 12:40:42;;;;;;;17.58;3.63;;;;;;;16.78;62.58;97602.22;2093438;28;20200;-68
2023/10/05 12:41:44;;;;;;;13.43;4.40;;;;;;;16.81;62.67;97602.91;2090917;28;20243;-68
2023/10/05 12:42:52;;;;;;;16.80;4.50;;;;;;;16.72;62.45;97602.56;2091137;28;20753;-68
2023/10/05 12:44:15;;;;;;;15.80;3.83;;;;;;;16.63;62.91;97591.59;2089709;28;20369;-68
2023/10/05 12:45:16;;;;;;;14.38;4.35;;;;;;;16.58;62.94;97598.03;2089177;28;20200;-68
2023/10/05 12:46:23;;;;;;;15.32;3.40;;;;;;;16.44;63.09;97589.09;2090107;28;20203;-68
2023/10/05 12:47:28;;;;;;;12.52;4.00;;;;;;;16.44;62.87;97586.47;2085433;28;20242;-68
2023/10/05 12:48:29;;;;;;;17.95;4.45;;;;;;;16.41;62.77;97589.25;2090235;28;20228;-68
2023/10/05 12:49:33;;;;;;;17.17;4.55;;;;;;;16.29;63.12;97581.97;2086956;28;20716;-68
2023/10/05 12:50:35;;;;;;;20.10;4.40;;;;;;;16.39;62.81;97580.59;2091275;28;20199;-68
2023/10/05 12:51:38;;;;;;;10.93;4.20;;;;;;;15.71;63.81;97564.78;2087728;28;20655;-68
2023/10/05 12:52:40;;;;;;;10.93;4.30;;;;;;;15.62;64.33;97574.00;2090847;28;20320;-68
2023/10/05 12:53:42;;;;;;;17.55;4.63;;;;;;;15.93;63.66;97565.38;2086800;28;20569;-68
2023/10/05 12:54:45;;;;;;;12.93;4.20;;;;;;;16.00;63.84;97565.94;2090621;28;20552;-67
2023/10/05 12:55:46;;;;;;;14.27;4.10;;;;;;;16.22;63.45;97564.81;2089954;28;20196;-67
2023/10/05 12:56:51;;;;;;;14.75;4.78;;;;;;;16.15;63.62;97554.59;2088901;28;20200;-67
2023/10/05 12:58:03;;;;;;;16.25;4.20;;;;;;;16.22;63.99;97559.53;2089812;28;20241;-67
2023/10/05 12:59:07;;;;;;;13.55;4.00;;;;;;;16.27;63.81;97560.16;2084936;28;20229;-67
2023/10/05 13:00:19;;;;;;;11.30;4.15;;;;;;;16.23;64.12;97550.72;2088697;28;20201;-68
2023/10/05 13:01:24;;;;;;;11.98;3.88;;;;;;;16.27;64.08;97541.69;2087226;28;20261;-67
2023/10/05 13:02:26;;;;;;;12.20;4.13;;;;;;;16.01;64.03;97551.84;2087174;28;20200;-68
2023/10/05 13:03:28;;;;;;;13.85;4.15;;;;;;;16.08;64.21;97553.19;2088565;28;20224;-68
2023/10/05 13:04:31;;;;;;;13.52;4.43;;;;;;;15.99;63.80;97544.00;2085697;28;20217;-68
2023/10/05 15:28:22;;;;;;;17.10;4.43;;;;;;;15.14;68.80;97534.25;2090661;28;20560;-66
2023/10/05 15:29:25;;;;;;;10.30;4.03;;;;;;;15.32;68.70;97540.38;2081243;28;20267;-68
2023/10/05 15:30:27;;;;;;;10.45;3.78;;;;;;;15.60;68.14;97542.44;2075439;28;20194;-68
2023/10/05 15:31:29;;;;;;;12.77;4.00;;;;;;;15.73;67.48;97539.19;2080364;28;20197;-68
2023/10/05 15:32:30;;;;;;;14.40;4.57;;;;;;;15.56;67.36;97550.59;2079483;28;20255;-68
2023/10/05 15:33:35;;;;;;;17.00;4.35;;;;;;;15.53;67.68;97559.50;2080538;28;20242;-68
